Monday, December 5, 2016, 11:36 AM EST
Back to Local

KMPO, Mt Pocono Pocono Mountains

Location: Pocono Summit, PA, United States Lat: 41.133
Local Time: 11:36 AM EST (16:36 GMT) Lon: -75.383
Time Zone: US/Eastern Elev: 1915 ft

Show me the last for .
Show Decoded

2016-12-05 10:53 METAR KMPO 051553Z AUTO 26011G16KT 10SM OVC004 01/M01 A2991 RMK AO2 SNE08 SLP148
                 P0000 T00061006 =
2016-12-05 10:01 METAR KMPO 051501Z AUTO 27008KT 3SM -SN BR OVC003 00/M01 A2992 RMK AO2 P0000
                 T00001006 =
2016-12-05 09:53 METAR KMPO 051453Z AUTO 26008KT 1 3/4SM -SN BR OVC003 00/M01 A2992 RMK AO2 SNB30
                 SLP153 P0000 60000 I3001 T00001006 50008 =
2016-12-05 08:53 METAR KMPO 051353Z AUTO 25008G16KT 4SM BR OVC002 M01/M01 A2992 RMK AO2
                 SNB00E12B34E46 SLP151 P0000 I1000 T10061011 =
2016-12-05 08:31 METAR KMPO 051331Z AUTO 26010G19KT 3SM BR OVC002 M01/M01 A2991 RMK AO2 SNB00E12
                 P0000 I1000 T10061011 =
2016-12-05 08:23 METAR KMPO 051323Z AUTO 25013G19KT 1 1/2SM BR OVC002 M01/M01 A2991 RMK AO2
                 SNB00E12 P0000 I1000 T10061011 =
2016-12-05 07:53 METAR KMPO 051253Z AUTO 23011G17KT 1/2SM FZFG VV002 M01/M01 A2990 RMK AO2 SLP145
                 I1001 T10061011 =
2016-12-05 07:44 METAR KMPO 051244Z AUTO 23009G15KT 1/2SM FZFG VV002 M01/M02 A2990 RMK AO2 I1001
                 T10111017 =
2016-12-05 07:02 METAR KMPO 051202Z AUTO 22008KT 1 1/4SM BR OVC002 M01/M02 A2990 RMK AO2
                 T10111017 =
2016-12-05 06:53 METAR KMPO 051153Z AUTO 22008KT 2 1/2SM BR OVC002 M01/M02 A2990 RMK AO2
                 UPB01E02SNE00 SLP148 P0000 60012 70012 T10111017 11011 21022 55000 =
2016-12-05 06:19 METAR KMPO 051119Z AUTO 19007KT 6SM BR OVC004 M01/M02 A2990 RMK AO2
                 UPB01E02SNE00 P0000 T10111022 =
2016-12-05 06:06 METAR KMPO 051106Z AUTO 19008KT 3SM BR OVC005 M01/M02 A2990 RMK AO2
                 UPB01E02SNE00 P0000 T10111022 =
2016-12-05 05:53 METAR KMPO 051053Z AUTO 18006KT 3SM -SN BR OVC004 M01/M02 A2990 RMK AO2 CIG
                 003V008 SLP144 P0001 T10111017 TSNO =
2016-12-05 05:15 METAR KMPO 051015Z AUTO 16007KT 2 1/2SM -SN BR OVC003 M02/M02 A2991 RMK AO2 CIG
                 002V008 P0000 T10171022 =
2016-12-05 04:53 METAR KMPO 050953Z AUTO 16008KT 3SM -SN BR OVC002 M02/M02 A2990 RMK AO2 SLP147
                 P0001 T10171022 =
2016-12-05 04:38 METAR KMPO 050938Z AUTO 14008KT 3SM -SN BR OVC002 M02/M03 A2990 RMK AO2 P0001
                 T10171028 =
2016-12-05 03:58 METAR KMPO 050858Z AUTO 13009KT 2SM -SN BR BKN004 OVC008 M02/M03 A2991 RMK AO2
                 P0000 T10221033 =
2016-12-05 03:53 METAR KMPO 050853Z AUTO 14009KT 1 1/2SM -SN BR SCT004 OVC008 M02/M03 A2992 RMK
                 AO2 SLP153 P0007 60010 T10221033 56005 =
2016-12-05 03:36 METAR KMPO 050836Z AUTO 14008KT 1SM -SN BR VV005 M02/M03 A2993 RMK AO2 P0006
                 T10221033 =
2016-12-05 03:26 METAR KMPO 050826Z AUTO 14006KT 3/4SM -SN BR OVC004 M02/M03 A2995 RMK AO2 P0004
                 T10221028 =
2016-12-05 02:53 METAR KMPO 050753Z AUTO 13009KT 1 1/4SM -SN BR BKN003 OVC006 M02/M03 A2994 RMK
                 AO2 SLP157 P0003 T10221033 =
2016-12-05 02:49 METAR KMPO 050749Z AUTO 13009KT 1 1/4SM -SN BR OVC003 M02/M03 A2994 RMK AO2
                 P0003 =
2016-12-05 02:31 METAR KMPO 050731Z AUTO 12008KT 1SM -SN BR VV008 M02/M04 A2995 RMK AO2 P0003
                 T10221039 =
2016-12-05 02:16 METAR KMPO 050716Z AUTO 13007KT 1 1/4SM -SN BR OVC013 M02/M04 A2997 RMK AO2
                 P0001 T10221039 =
2016-12-05 02:05 METAR KMPO 050705Z AUTO 13008KT 1 1/2SM -SN BR OVC017 M02/M04 A2996 RMK AO2
                 P0000 T10221044 =
2016-12-05 01:53 METAR KMPO 050653Z AUTO 13009KT 2 1/2SM -SN OVC027 M02/M05 A2998 RMK AO2 SNB36
                 SLP169 P0000 T10171050 =
2016-12-05 00:53 METAR KMPO 050553Z AUTO 12006KT 10SM BKN075 OVC095 M02/M06 A2996 RMK AO2 SLP161
                 T10171061 10000 21017 58027 =
2016-12-04 23:53 METAR KMPO 050453Z AUTO 13010KT 10SM FEW070 OVC095 M02/M06 A2999 RMK AO2 SLP174
                 T10171061 400331017 =
2016-12-04 22:53 METAR KMPO 050353Z AUTO 11008KT 10SM OVC110 M01/M06 A3002 RMK AO2 SLP184
                 T10111061 =
2016-12-04 21:53 METAR KMPO 050253Z AUTO 12007KT 10SM BKN110 M01/M06 A3004 RMK AO2 SLP192
                 T10061061 58020 =
2016-12-04 20:53 METAR KMPO 050153Z AUTO 13005KT 10SM CLR M01/M06 A3009 RMK AO2 SLP208 T10061061
                 =
2016-12-04 19:53 METAR KMPO 050053Z AUTO 11004KT 10SM CLR M01/M05 A3009 RMK AO2 SLP212 T10111050
                 =
2016-12-04 18:53 METAR KMPO 042353Z AUTO 00000KT 10SM CLR M01/M05 A3010 RMK AO2 SLP215 T10111050
                 10028 21011 58004 =
2016-12-04 17:53 METAR KMPO 042253Z AUTO 00000KT 10SM CLR 00/M06 A3011 RMK AO2 SLP215 T00001056 =
2016-12-04 16:53 METAR KMPO 042153Z AUTO 00000KT 10SM CLR 00/M06 A3012 RMK AO2 SLP218 T00001061 =
2016-12-04 15:53 METAR KMPO 042053Z AUTO 00000KT 10SM CLR 01/M07 A3012 RMK AO2 SLP218 T00111067
                 58009 =
2016-12-04 14:53 METAR KMPO 041953Z AUTO 35006KT 10SM CLR 02/M07 A3013 RMK AO2 SLP222 T00221067 =
2016-12-04 13:53 METAR KMPO 041853Z AUTO 31009KT 10SM CLR 02/M07 A3014 RMK AO2 SLP223 T00221067 =
2016-12-04 12:53 METAR KMPO 041753Z AUTO 32009KT 10SM CLR 03/M07 A3015 RMK AO2 SLP226 T00331067
                 10033 21011 58007 =
2016-12-04 11:53 METAR KMPO 041653Z AUTO 33010G17KT 10SM CLR 02/M06 A3015 RMK AO2 SLP230
                 T00221061 TSNO =

Support USWX by starting your Amazon purchase here.